Time,TemperatureF,DewpointF,PressureIn,WindDirection,WindDirectionDegrees,WindSpeedMPH,WindSpeedGustMPH,Humidity,HourlyPrecipIn,Conditions,Clouds,dailyrainin,SoftwareType,DateUTC
2013-08-24 00:02:00,57.9,52.5,29.93,North,0,0.0,0.0,82,0.00,,SKC,0.00,VWS V13.00,2013-08-24 06:02:00,
2013-08-24 00:07:00,57.7,52.3,29.93,North,0,0.0,0.0,82,0.00,,SKC,0.00,VWS V13.00,2013-08-24 06:07:00,
2013-08-24 00:12:00,57.4,51.9,29.93,North,0,0.0,0.0,82,0.00,,SKC,0.00,VWS V13.00,2013-08-24 06:12:00,
2013-08-24 00:17:00,57.0,51.9,29.93,North,0,0.0,0.0,83,0.00,,SKC,0.00,VWS V13.00,2013-08-24 06:17:00,
2013-08-24 00:22:00,56.7,51.6,29.93,North,0,0.0,0.0,83,0.00,,SKC,0.00,VWS V13.00,2013-08-24 06:22:00,
2013-08-24 00:27:00,56.5,51.4,29.93,North,0,0.0,0.0,83,0.00,,SKC,0.00,VWS V13.00,2013-08-24 06:27:00,
2013-08-24 00:32:00,56.1,51.0,29.93,North,0,0.0,0.0,83,0.00,,SKC,0.00,VWS V13.00,2013-08-24 06:32:00,
2013-08-24 00:37:00,55.9,50.9,29.93,North,0,0.0,0.0,83,0.00,,SKC,0.00,VWS V13.00,2013-08-24 06:37:00,
2013-08-24 00:42:00,55.6,50.5,29.93,North,0,0.0,0.0,83,0.00,,SKC,0.00,VWS V13.00,2013-08-24 06:42:00,
2013-08-24 00:47:00,55.4,50.3,29.96,North,0,0.0,0.0,83,0.00,,SKC,0.00,VWS V13.00,2013-08-24 06:47:00,
2013-08-24 00:52:00,55.2,50.5,29.96,North,0,0.0,0.0,84,0.00,,SKC,0.00,VWS V13.00,2013-08-24 06:52:00,
2013-08-24 00:57:00,55.0,50.3,29.96,North,0,0.0,0.0,84,0.00,,SKC,0.00,VWS V13.00,2013-08-24 06:57:00,
2013-08-24 01:02:00,54.9,50.1,29.96,North,0,0.0,0.0,84,0.00,,SKC,0.00,VWS V13.00,2013-08-24 07:02:00,
2013-08-24 01:07:00,54.9,50.1,29.96,North,0,0.0,0.0,84,0.00,,SKC,0.00,VWS V13.00,2013-08-24 07:07:00,
2013-08-24 01:12:00,54.7,50.0,29.96,North,0,0.0,0.0,84,0.00,,SKC,0.00,VWS V13.00,2013-08-24 07:12:00,
2013-08-24 01:17:00,54.5,49.8,29.96,North,0,0.0,0.0,84,0.00,,SKC,0.00,VWS V13.00,2013-08-24 07:17:00,
2013-08-24 01:22:00,54.3,49.9,29.96,North,0,0.0,0.0,85,0.00,,SKC,0.00,VWS V13.00,2013-08-24 07:22:00,
2013-08-24 01:27:00,54.3,49.9,29.96,North,0,0.0,0.0,85,0.00,,SKC,0.00,VWS V13.00,2013-08-24 07:27:00,
2013-08-24 01:32:00,54.1,49.7,29.96,North,0,0.0,0.0,85,0.00,,SKC,0.00,VWS V13.00,2013-08-24 07:32:00,
2013-08-24 01:37:00,54.0,49.6,29.96,North,0,0.0,0.0,85,0.00,,SKC,0.00,VWS V13.00,2013-08-24 07:37:00,
2013-08-24 01:42:00,53.8,49.4,29.96,North,0,0.0,0.0,85,0.00,,SKC,0.00,VWS V13.00,2013-08-24 07:42:00,
2013-08-24 01:47:00,53.8,49.4,29.96,North,0,0.0,0.0,85,0.00,,SKC,0.00,VWS V13.00,2013-08-24 07:47:00,
2013-08-24 01:52:00,53.6,49.2,29.96,North,0,0.0,0.0,85,0.00,,SKC,0.00,VWS V13.00,2013-08-24 07:52:00,
2013-08-24 01:57:00,53.2,49.2,29.96,North,0,0.0,0.0,86,0.00,,SKC,0.00,VWS V13.00,2013-08-24 07:57:00,
2013-08-24 02:02:00,53.2,49.2,29.93,North,0,0.0,0.0,86,0.00,,SKC,0.00,VWS V13.00,2013-08-24 08:02:00,
2013-08-24 02:07:00,53.1,49.0,29.93,North,0,0.0,0.0,86,0.00,,SKC,0.00,VWS V13.00,2013-08-24 08:07:00,
2013-08-24 02:12:00,52.9,48.8,29.93,North,0,0.0,0.0,86,0.00,,SKC,0.00,VWS V13.00,2013-08-24 08:12:00,
2013-08-24 02:17:00,52.7,48.6,29.96,North,0,0.0,0.0,86,0.00,,SKC,0.00,VWS V13.00,2013-08-24 08:17:00,
2013-08-24 02:22:00,52.5,48.5,29.96,North,0,0.0,0.0,86,0.00,,SKC,0.00,VWS V13.00,2013-08-24 08:22:00,
2013-08-24 02:27:00,52.3,48.3,29.96,North,0,0.0,0.0,86,0.00,,SKC,0.00,VWS V13.00,2013-08-24 08:27:00,
2013-08-24 02:32:00,52.2,48.1,29.93,North,0,0.0,0.0,86,0.00,,SKC,0.00,VWS V13.00,2013-08-24 08:32:00,
2013-08-24 02:37:00,52.0,47.9,29.93,North,0,0.0,0.0,86,0.00,,SKC,0.00,VWS V13.00,2013-08-24 08:37:00,
2013-08-24 02:42:00,52.0,47.9,29.93,North,0,0.0,0.0,86,0.00,,SKC,0.00,VWS V13.00,2013-08-24 08:42:00,
2013-08-24 02:47:00,52.0,47.9,29.96,North,0,0.0,0.0,86,0.00,,SKC,0.00,VWS V13.00,2013-08-24 08:47:00,
2013-08-24 02:52:00,52.0,48.2,29.96,North,0,0.0,0.0,87,0.00,,SKC,0.00,VWS V13.00,2013-08-24 08:52:00,
2013-08-24 02:57:00,52.0,48.2,29.96,North,0,0.0,0.0,87,0.00,,SKC,0.00,VWS V13.00,2013-08-24 08:57:00,
2013-08-24 03:02:00,52.0,48.2,29.96,North,0,0.0,0.0,87,0.00,,SKC,0.00,VWS V13.00,2013-08-24 09:02:00,
2013-08-24 03:07:00,52.0,48.2,29.96,North,0,0.0,0.0,87,0.00,,SKC,0.00,VWS V13.00,2013-08-24 09:07:00,
2013-08-24 03:12:00,52.0,48.2,29.96,North,0,0.0,0.0,87,0.00,,SKC,0.00,VWS V13.00,2013-08-24 09:12:00,
2013-08-24 03:17:00,52.0,48.5,29.96,North,0,0.0,0.0,88,0.00,,SKC,0.00,VWS V13.00,2013-08-24 09:17:00,
2013-08-24 03:22:00,52.0,48.5,29.96,North,0,0.0,0.0,88,0.00,,SKC,0.00,VWS V13.00,2013-08-24 09:22:00,
2013-08-24 03:27:00,52.2,48.7,29.96,North,0,0.0,0.0,88,0.00,,SKC,0.00,VWS V13.00,2013-08-24 09:27:00,
2013-08-24 03:32:00,52.2,48.7,29.96,North,0,0.0,0.0,88,0.00,,SKC,0.00,VWS V13.00,2013-08-24 09:32:00,
2013-08-24 03:37:00,52.2,49.0,29.96,North,0,0.0,0.0,89,0.00,,SKC,0.00,VWS V13.00,2013-08-24 09:37:00,
2013-08-24 03:42:00,52.2,49.0,29.96,North,0,0.0,0.0,89,0.00,,SKC,0.00,VWS V13.00,2013-08-24 09:42:00,
2013-08-24 03:47:00,52.2,49.0,29.96,North,0,0.0,0.0,89,0.00,,SKC,0.00,VWS V13.00,2013-08-24 09:47:00,
2013-08-24 03:52:00,52.0,48.8,29.96,North,0,0.0,0.0,89,0.00,,SKC,0.00,VWS V13.00,2013-08-24 09:52:00,
2013-08-24 03:57:00,52.0,48.8,29.96,North,0,0.0,0.0,89,0.00,,SKC,0.00,VWS V13.00,2013-08-24 09:57:00,
2013-08-24 04:02:00,52.0,48.8,29.96,North,0,0.0,0.0,89,0.00,,SKC,0.00,VWS V13.00,2013-08-24 10:02:00,
2013-08-24 04:07:00,51.8,48.7,29.96,North,0,0.0,0.0,89,0.00,,SKC,0.00,VWS V13.00,2013-08-24 10:07:00,
2013-08-24 04:12:00,51.8,48.7,29.96,North,0,0.0,0.0,89,0.00,,SKC,0.00,VWS V13.00,2013-08-24 10:12:00,
2013-08-24 04:17:00,51.6,48.8,29.96,North,0,0.0,0.0,90,0.00,,SKC,0.00,VWS V13.00,2013-08-24 10:17:00,
2013-08-24 04:22:00,51.6,48.8,29.96,North,0,0.0,0.0,90,0.00,,SKC,0.00,VWS V13.00,2013-08-24 10:22:00,
2013-08-24 04:27:00,51.4,48.6,29.96,North,0,0.0,0.0,90,0.00,,SKC,0.00,VWS V13.00,2013-08-24 10:27:00,
2013-08-24 04:32:00,51.3,48.4,29.96,North,0,0.0,0.0,90,0.00,,SKC,0.00,VWS V13.00,2013-08-24 10:32:00,
2013-08-24 04:37:00,51.3,48.4,29.96,North,0,0.0,0.0,90,0.00,,SKC,0.00,VWS V13.00,2013-08-24 10:37:00,
2013-08-24 04:42:00,51.1,48.2,29.96,North,0,0.0,0.0,90,0.00,,SKC,0.00,VWS V13.00,2013-08-24 10:42:00,
2013-08-24 04:47:00,50.9,48.1,29.96,North,0,0.0,0.0,90,0.00,,SKC,0.00,VWS V13.00,2013-08-24 10:47:00,
2013-08-24 04:52:00,50.7,47.9,29.96,North,0,0.0,0.0,90,0.00,,SKC,0.00,VWS V13.00,2013-08-24 10:52:00,
2013-08-24 04:58:00,50.7,47.9,29.96,North,0,0.0,0.0,90,0.00,,SKC,0.00,VWS V13.00,2013-08-24 10:58:00,
2013-08-24 05:03:00,50.5,47.7,29.96,North,0,0.0,0.0,90,0.00,,SKC,0.00,VWS V13.00,2013-08-24 11:03:00,
2013-08-24 05:08:00,50.4,47.2,29.96,North,0,0.0,0.0,89,0.00,,SKC,0.00,VWS V13.00,2013-08-24 11:08:00,
2013-08-24 05:13:00,50.4,47.2,29.96,North,0,0.0,0.0,89,0.00,,SKC,0.00,VWS V13.00,2013-08-24 11:13:00,
2013-08-24 05:18:00,50.2,47.1,29.96,North,0,0.0,0.0,89,0.00,,SKC,0.00,VWS V13.00,2013-08-24 11:18:00,
2013-08-24 05:23:00,50.2,47.1,29.96,North,0,0.0,0.0,89,0.00,,SKC,0.00,VWS V13.00,2013-08-24 11:23:00,
2013-08-24 05:28:00,50.0,46.9,29.96,North,0,0.0,0.0,89,0.00,,SKC,0.00,VWS V13.00,2013-08-24 11:28:00,
2013-08-24 05:33:00,50.0,46.9,29.96,North,0,0.0,0.0,89,0.00,,SKC,0.00,VWS V13.00,2013-08-24 11:33:00,
2013-08-24 05:38:00,49.8,47.0,29.96,North,0,0.0,0.0,90,0.00,,SKC,0.00,VWS V13.00,2013-08-24 11:38:00,
2013-08-24 05:43:00,49.6,46.8,29.96,North,0,0.0,0.0,90,0.00,,SKC,0.00,VWS V13.00,2013-08-24 11:43:00,
2013-08-24 05:48:00,49.6,46.8,29.96,North,0,0.0,0.0,90,0.00,,SKC,0.00,VWS V13.00,2013-08-24 11:48:00,
2013-08-24 05:53:00,49.6,46.8,29.96,North,0,0.0,0.0,90,0.00,,SKC,0.00,VWS V13.00,2013-08-24 11:53:00,
2013-08-24 05:58:00,49.5,46.7,29.96,North,0,0.0,0.0,90,0.00,,SKC,0.00,VWS V13.00,2013-08-24 11:58:00,
2013-08-24 06:03:00,49.5,46.7,29.96,North,0,0.0,0.0,90,0.00,,SKC,0.00,VWS V13.00,2013-08-24 12:03:00,
2013-08-24 06:08:00,49.3,46.5,29.96,North,0,0.0,0.0,90,0.00,,SKC,0.00,VWS V13.00,2013-08-24 12:08:00,
2013-08-24 06:13:00,49.3,46.5,29.96,North,0,0.0,0.0,90,0.00,,SKC,0.00,VWS V13.00,2013-08-24 12:13:00,
2013-08-24 06:18:00,49.3,46.5,29.96,North,0,0.0,0.0,90,0.00,,SKC,0.00,VWS V13.00,2013-08-24 12:18:00,
2013-08-24 06:23:00,49.3,46.5,29.96,North,0,0.0,0.0,90,0.00,,SKC,0.00,VWS V13.00,2013-08-24 12:23:00,
2013-08-24 06:28:00,49.1,46.3,29.96,North,0,0.0,0.0,90,0.00,,SKC,0.00,VWS V13.00,2013-08-24 12:28:00,
2013-08-24 06:33:00,49.1,46.3,29.96,North,0,0.0,0.0,90,0.00,,SKC,0.00,VWS V13.00,2013-08-24 12:33:00,
2013-08-24 06:38:00,49.1,46.3,29.96,North,0,0.0,0.0,90,0.00,,SKC,0.00,VWS V13.00,2013-08-24 12:38:00,
2013-08-24 06:43:00,49.1,46.3,29.96,North,0,0.0,0.0,90,0.00,,SKC,0.00,VWS V13.00,2013-08-24 12:43:00,
2013-08-24 06:48:00,48.9,46.1,29.96,North,0,0.0,0.0,90,0.00,,SKC,0.00,VWS V13.00,2013-08-24 12:48:00,
2013-08-24 06:53:00,48.9,46.1,29.96,North,0,0.0,0.0,90,0.00,,SKC,0.00,VWS V13.00,2013-08-24 12:53:00,
2013-08-24 06:58:00,49.1,46.3,29.99,North,0,0.0,0.0,90,0.00,,SKC,0.00,VWS V13.00,2013-08-24 12:58:00,
2013-08-24 07:03:00,49.5,47.0,29.99,North,0,0.0,0.0,91,0.00,,SKC,0.00,VWS V13.00,2013-08-24 13:03:00,
2013-08-24 07:08:00,50.0,47.5,29.99,North,0,0.0,0.0,91,0.00,,SKC,0.00,VWS V13.00,2013-08-24 13:08:00,
2013-08-24 07:13:00,50.4,47.8,29.99,North,0,0.0,0.0,91,0.00,,SKC,0.00,VWS V13.00,2013-08-24 13:13:00,
2013-08-24 07:18:00,50.9,48.7,29.99,North,0,0.0,0.0,92,0.00,,SKC,0.00,VWS V13.00,2013-08-24 13:18:00,
2013-08-24 07:23:00,51.4,49.2,29.99,North,0,0.0,0.0,92,0.00,,SKC,0.00,VWS V13.00,2013-08-24 13:23:00,
2013-08-24 07:28:00,51.8,49.5,29.99,North,0,0.0,0.0,92,0.00,,SKC,0.00,VWS V13.00,2013-08-24 13:28:00,
2013-08-24 07:33:00,53.1,51.1,29.99,North,0,0.0,0.0,93,0.00,,SKC,0.00,VWS V13.00,2013-08-24 13:33:00,
2013-08-24 07:38:00,54.3,52.0,29.99,North,0,0.0,0.0,92,0.00,,SKC,0.00,VWS V13.00,2013-08-24 13:38:00,
2013-08-24 07:43:00,55.2,52.6,29.99,North,0,0.0,0.0,91,0.00,,SKC,0.00,VWS V13.00,2013-08-24 13:43:00,
2013-08-24 07:48:00,54.7,51.8,29.99,North,0,0.0,0.0,90,0.00,,SKC,0.00,VWS V13.00,2013-08-24 13:48:00,
2013-08-24 07:53:00,54.3,51.2,29.99,North,0,0.0,0.0,89,0.00,,SKC,0.00,VWS V13.00,2013-08-24 13:53:00,
2013-08-24 07:58:00,54.0,51.1,29.99,North,0,0.0,0.0,90,0.00,,SKC,0.00,VWS V13.00,2013-08-24 13:58:00,
2013-08-24 08:03:00,53.8,50.9,29.99,North,0,0.0,0.0,90,0.00,,SKC,0.00,VWS V13.00,2013-08-24 14:03:00,
2013-08-24 08:08:00,53.8,50.9,29.99,North,0,0.0,0.0,90,0.00,,SKC,0.00,VWS V13.00,2013-08-24 14:08:00,
2013-08-24 08:13:00,53.8,51.2,29.99,North,0,0.0,0.0,91,0.00,,SKC,0.00,VWS V13.00,2013-08-24 14:13:00,
2013-08-24 08:18:00,54.0,51.4,29.99,North,0,0.0,0.0,91,0.00,,SKC,0.00,VWS V13.00,2013-08-24 14:18:00,
2013-08-24 08:23:00,54.0,51.4,29.99,North,0,0.0,0.0,91,0.00,,SKC,0.00,VWS V13.00,2013-08-24 14:23:00,
2013-08-24 08:28:00,54.1,51.6,29.99,North,0,0.0,0.0,91,0.00,,SKC,0.00,VWS V13.00,2013-08-24 14:28:00,
2013-08-24 08:33:00,54.3,52.0,29.99,North,0,0.0,0.0,92,0.00,,SKC,0.00,VWS V13.00,2013-08-24 14:33:00,
2013-08-24 08:38:00,54.5,52.2,29.99,North,0,0.0,0.0,92,0.00,,SKC,0.00,VWS V13.00,2013-08-24 14:38:00,
2013-08-24 08:43:00,54.9,52.6,29.99,North,0,0.0,0.0,92,0.00,,SKC,0.00,VWS V13.00,2013-08-24 14:43:00,
2013-08-24 08:48:00,55.2,52.9,29.99,North,0,0.0,0.0,92,0.00,,SKC,0.00,VWS V13.00,2013-08-24 14:48:00,
2013-08-24 08:53:00,55.6,53.3,29.99,North,0,0.0,0.0,92,0.00,,SKC,0.00,VWS V13.00,2013-08-24 14:53:00,
2013-08-24 08:58:00,55.9,53.7,29.99,North,0,0.0,0.0,92,0.00,,SKC,0.00,VWS V13.00,2013-08-24 14:58:00,
2013-08-24 09:03:00,56.3,54.0,29.99,North,0,0.0,0.0,92,0.00,,SKC,0.00,VWS V13.00,2013-08-24 15:03:00,
2013-08-24 09:08:00,56.7,54.4,29.99,North,0,0.0,0.0,92,0.00,,SKC,0.00,VWS V13.00,2013-08-24 15:08:00,
2013-08-24 09:13:00,57.0,54.7,29.99,North,0,0.0,0.0,92,0.00,,SKC,0.00,VWS V13.00,2013-08-24 15:13:00,
2013-08-24 09:18:00,57.2,54.6,29.99,North,0,0.0,0.0,91,0.00,,SKC,0.00,VWS V13.00,2013-08-24 15:18:00,
2013-08-24 09:23:00,57.4,54.8,29.99,North,0,0.0,0.0,91,0.00,,SKC,0.00,VWS V13.00,2013-08-24 15:23:00,
2013-08-24 09:28:00,57.7,55.1,29.99,North,0,0.0,0.0,91,0.00,,SKC,0.00,VWS V13.00,2013-08-24 15:28:00,
2013-08-24 09:33:00,57.7,54.8,29.99,North,0,0.0,0.0,90,0.00,,SKC,0.00,VWS V13.00,2013-08-24 15:33:00,
2013-08-24 09:38:00,58.5,55.5,29.99,North,0,0.0,0.0,90,0.00,,SKC,0.00,VWS V13.00,2013-08-24 15:38:00,
2013-08-24 09:43:00,59.5,56.3,29.99,North,0,0.0,0.0,89,0.00,,SKC,0.00,VWS V13.00,2013-08-24 15:43:00,
2013-08-24 09:48:00,60.8,56.9,29.99,North,0,0.0,0.0,87,0.00,,SKC,0.00,VWS V13.00,2013-08-24 15:48:00,
2013-08-24 09:54:00,61.9,56.7,29.99,North,0,0.0,0.0,83,0.00,,SKC,0.00,VWS V13.00,2013-08-24 15:54:00,
2013-08-24 09:59:00,62.2,56.0,29.99,North,0,0.0,0.0,80,0.00,,SKC,0.00,VWS V13.00,2013-08-24 15:59:00,
2013-08-24 10:04:00,62.1,54.4,29.99,North,0,0.0,0.0,76,0.00,,SKC,0.00,VWS V13.00,2013-08-24 16:04:00,
2013-08-24 10:09:00,61.5,52.8,29.99,North,0,0.0,0.0,73,0.00,,SKC,0.00,VWS V13.00,2013-08-24 16:09:00,
2013-08-24 10:14:00,61.2,52.1,29.99,North,0,0.0,0.0,72,0.00,,SKC,0.00,VWS V13.00,2013-08-24 16:14:00,
2013-08-24 10:19:00,61.2,52.5,29.99,North,0,0.0,0.0,73,0.00,,SKC,0.00,VWS V13.00,2013-08-24 16:19:00,
2013-08-24 10:24:00,61.3,52.6,29.99,North,0,0.0,0.0,73,0.00,,SKC,0.00,VWS V13.00,2013-08-24 16:24:00,
2013-08-24 10:29:00,61.7,53.0,29.99,North,0,0.0,0.0,73,0.00,,SKC,0.00,VWS V13.00,2013-08-24 16:29:00,
2013-08-24 10:34:00,62.2,53.1,29.99,North,0,0.0,0.0,72,0.00,,SKC,0.00,VWS V13.00,2013-08-24 16:34:00,
2013-08-24 10:39:00,62.8,52.5,29.99,North,0,0.0,0.0,69,0.00,,SKC,0.00,VWS V13.00,2013-08-24 16:39:00,
2013-08-24 10:44:00,63.0,51.8,29.99,North,0,0.0,0.0,67,0.00,,SKC,0.00,VWS V13.00,2013-08-24 16:44:00,
2013-08-24 10:49:00,63.0,52.2,29.99,North,0,0.0,0.0,68,0.00,,SKC,0.00,VWS V13.00,2013-08-24 16:49:00,
2013-08-24 10:54:00,62.8,52.1,29.99,North,0,0.0,0.0,68,0.00,,SKC,0.00,VWS V13.00,2013-08-24 16:54:00,
2013-08-24 10:59:00,62.6,52.7,29.99,North,0,0.0,0.0,70,0.00,,SKC,0.00,VWS V13.00,2013-08-24 16:59:00,
2013-08-24 11:04:00,62.6,53.1,29.99,North,0,0.0,0.0,71,0.00,,SKC,0.00,VWS V13.00,2013-08-24 17:04:00,
2013-08-24 11:09:00,63.0,52.6,29.99,North,0,0.0,0.0,69,0.00,,SKC,0.00,VWS V13.00,2013-08-24 17:09:00,
2013-08-24 11:14:00,63.5,52.8,29.99,North,0,0.0,0.0,68,0.00,,SKC,0.00,VWS V13.00,2013-08-24 17:14:00,
2013-08-24 11:19:00,64.2,52.2,29.99,North,0,0.0,0.0,65,0.00,,SKC,0.00,VWS V13.00,2013-08-24 17:19:00,
2013-08-24 11:24:00,64.9,52.1,29.99,North,0,0.0,0.0,63,0.00,,SKC,0.00,VWS V13.00,2013-08-24 17:24:00,
2013-08-24 11:29:00,65.5,51.7,29.99,North,0,0.0,0.0,61,0.00,,SKC,0.00,VWS V13.00,2013-08-24 17:29:00,
2013-08-24 11:34:00,66.0,52.2,29.99,North,0,0.0,0.0,61,0.00,,SKC,0.00,VWS V13.00,2013-08-24 17:34:00,
2013-08-24 11:39:00,66.6,52.3,29.99,North,0,0.0,0.0,60,0.00,,SKC,0.00,VWS V13.00,2013-08-24 17:39:00,
2013-08-24 11:44:00,66.9,50.7,29.99,North,0,0.0,0.0,56,0.00,,SKC,0.00,VWS V13.00,2013-08-24 17:44:00,
2013-08-24 11:49:00,66.9,48.2,29.99,North,0,0.0,0.0,51,0.00,,SKC,0.00,VWS V13.00,2013-08-24 17:49:00,
2013-08-24 11:54:00,66.7,49.6,29.99,North,0,0.0,0.0,54,0.00,,SKC,0.00,VWS V13.00,2013-08-24 17:54:00,
2013-08-24 11:59:00,66.7,49.6,29.99,North,0,0.0,0.0,54,0.00,,SKC,0.00,VWS V13.00,2013-08-24 17:59:00,
2013-08-24 12:04:00,67.3,46.4,29.99,North,0,0.0,0.0,47,0.00,,SKC,0.00,VWS V13.00,2013-08-24 18:04:00,
2013-08-24 12:09:00,67.8,48.5,29.99,North,0,0.0,0.0,50,0.00,,SKC,0.00,VWS V13.00,2013-08-24 18:09:00,
2013-08-24 12:14:00,68.9,47.3,29.99,North,0,0.0,0.0,46,0.00,,SKC,0.00,VWS V13.00,2013-08-24 18:14:00,
2013-08-24 12:19:00,69.4,46.6,29.99,North,0,0.0,0.0,44,0.00,,SKC,0.00,VWS V13.00,2013-08-24 18:19:00,
2013-08-24 12:24:00,69.6,46.2,29.99,North,0,0.0,0.0,43,0.00,,SKC,0.00,VWS V13.00,2013-08-24 18:24:00,
2013-08-24 12:29:00,69.3,45.8,29.99,North,0,0.0,0.0,43,0.00,,SKC,0.00,VWS V13.00,2013-08-24 18:29:00,
2013-08-24 12:34:00,69.1,46.3,29.99,North,0,0.0,0.0,44,0.00,,SKC,0.00,VWS V13.00,2013-08-24 18:34:00,
2013-08-24 12:39:00,68.5,46.4,29.99,North,0,0.0,0.0,45,0.00,,SKC,0.00,VWS V13.00,2013-08-24 18:39:00,
2013-08-24 12:44:00,68.2,47.2,29.99,North,0,0.0,0.0,47,0.00,,SKC,0.00,VWS V13.00,2013-08-24 18:44:00,
2013-08-24 12:49:00,67.8,46.9,29.99,North,0,0.0,0.0,47,0.00,,SKC,0.00,VWS V13.00,2013-08-24 18:49:00,
2013-08-24 12:54:00,67.6,47.3,29.99,North,0,0.0,0.0,48,0.00,,SKC,0.00,VWS V13.00,2013-08-24 18:54:00,
2013-08-24 12:59:00,67.3,48.5,29.96,North,0,0.0,0.0,51,0.00,,SKC,0.00,VWS V13.00,2013-08-24 18:59:00,
2013-08-24 13:04:00,66.9,51.7,29.96,North,0,0.0,0.0,58,0.00,,SKC,0.00,VWS V13.00,2013-08-24 19:04:00,
2013-08-24 13:09:00,66.7,53.8,29.96,North,0,0.0,0.0,63,0.00,,SKC,0.00,VWS V13.00,2013-08-24 19:09:00,
2013-08-24 13:14:00,67.3,55.1,29.96,North,0,0.0,0.0,65,0.00,,SKC,0.00,VWS V13.00,2013-08-24 19:14:00,
2013-08-24 13:19:00,68.5,56.7,29.96,North,0,0.0,0.0,66,0.00,,SKC,0.00,VWS V13.00,2013-08-24 19:19:00,
2013-08-24 13:24:00,69.1,53.2,29.96,North,0,0.0,0.0,57,0.00,,SKC,0.00,VWS V13.00,2013-08-24 19:24:00,
2013-08-24 13:29:00,69.8,55.3,29.96,North,0,0.0,0.0,60,0.00,,SKC,0.00,VWS V13.00,2013-08-24 19:29:00,
2013-08-24 13:34:00,69.6,51.2,29.96,North,0,0.0,0.0,52,0.00,,SKC,0.00,VWS V13.00,2013-08-24 19:34:00,
2013-08-24 13:39:00,69.6,52.8,29.96,North,0,0.0,0.0,55,0.00,,SKC,0.00,VWS V13.00,2013-08-24 19:39:00,
2013-08-24 13:44:00,69.8,50.9,29.96,North,0,0.0,0.0,51,0.00,,SKC,0.00,VWS V13.00,2013-08-24 19:44:00,
2013-08-24 13:49:00,70.7,50.1,29.96,North,0,0.0,0.0,48,0.00,,SKC,0.00,VWS V13.00,2013-08-24 19:49:00,
2013-08-24 13:54:00,71.4,48.4,29.96,North,0,0.0,0.0,44,0.00,,SKC,0.00,VWS V13.00,2013-08-24 19:54:00,
2013-08-24 13:59:00,71.8,49.3,29.96,North,0,0.0,0.0,45,0.00,,SKC,0.00,VWS V13.00,2013-08-24 19:59:00,
2013-08-24 14:04:00,72.1,49.0,29.96,North,0,0.0,0.0,44,0.00,,SKC,0.00,VWS V13.00,2013-08-24 20:04:00,
2013-08-24 14:09:00,72.7,49.5,29.96,North,0,0.0,0.0,44,0.00,,SKC,0.00,VWS V13.00,2013-08-24 20:09:00,
2013-08-24 14:14:00,72.7,49.5,29.96,North,0,0.0,0.0,44,0.00,,SKC,0.00,VWS V13.00,2013-08-24 20:14:00,
2013-08-24 14:19:00,72.5,49.4,29.96,North,0,0.0,0.0,44,0.00,,SKC,0.00,VWS V13.00,2013-08-24 20:19:00,
2013-08-24 14:24:00,72.3,51.0,29.96,North,0,0.0,0.0,47,0.00,,SKC,0.00,VWS V13.00,2013-08-24 20:24:00,
2013-08-24 14:29:00,72.3,49.8,29.96,North,0,0.0,0.0,45,0.00,,SKC,0.00,VWS V13.00,2013-08-24 20:29:00,
2013-08-24 14:34:00,72.3,49.8,29.96,North,0,0.0,0.0,45,0.00,,SKC,0.00,VWS V13.00,2013-08-24 20:34:00,
2013-08-24 14:39:00,72.1,49.7,29.96,North,0,0.0,0.0,45,0.00,,SKC,0.00,VWS V13.00,2013-08-24 20:39:00,
2013-08-24 14:44:00,72.0,50.1,29.96,North,0,0.0,0.0,46,0.00,,SKC,0.00,VWS V13.00,2013-08-24 20:44:00,
2013-08-24 14:50:00,72.3,49.8,29.96,North,0,0.0,0.0,45,0.00,,SKC,0.00,VWS V13.00,2013-08-24 20:50:00,
2013-08-24 14:55:00,72.7,47.7,29.96,North,0,0.0,0.0,41,0.00,,SKC,0.00,VWS V13.00,2013-08-24 20:55:00,
2013-08-24 15:00:00,73.0,48.6,29.93,North,0,0.0,0.0,42,0.00,,SKC,0.00,VWS V13.00,2013-08-24 21:00:00,
2013-08-24 15:05:00,73.0,49.2,29.93,North,0,0.0,0.0,43,0.00,,SKC,0.00,VWS V13.00,2013-08-24 21:05:00,
2013-08-24 15:10:00,73.0,48.0,29.93,North,0,0.0,0.0,41,0.00,,SKC,0.00,VWS V13.00,2013-08-24 21:10:00,
2013-08-24 15:15:00,72.9,45.1,29.93,North,0,0.0,0.0,37,0.00,,SKC,0.00,VWS V13.00,2013-08-24 21:15:00,
2013-08-24 15:20:00,72.5,43.3,29.93,North,0,0.0,0.0,35,0.00,,SKC,0.00,VWS V13.00,2013-08-24 21:20:00,
2013-08-24 15:25:00,72.3,44.6,29.93,North,0,0.0,0.0,37,0.00,,SKC,0.00,VWS V13.00,2013-08-24 21:25:00,
2013-08-24 15:30:00,72.5,43.3,29.93,North,0,0.0,0.0,35,0.00,,SKC,0.00,VWS V13.00,2013-08-24 21:30:00,
2013-08-24 15:35:00,72.3,43.9,29.93,North,0,0.0,0.0,36,0.00,,SKC,0.00,VWS V13.00,2013-08-24 21:35:00,
2013-08-24 15:40:00,72.7,42.0,29.93,North,0,0.0,0.0,33,0.00,,SKC,0.00,VWS V13.00,2013-08-24 21:40:00,
2013-08-24 15:45:00,72.9,42.1,29.93,North,0,0.0,0.0,33,0.00,,SKC,0.00,VWS V13.00,2013-08-24 21:45:00,
2013-08-24 15:50:00,72.9,41.3,29.93,North,0,0.0,0.0,32,0.00,,SKC,0.00,VWS V13.00,2013-08-24 21:50:00,
2013-08-24 15:55:00,72.7,41.2,29.93,North,0,0.0,0.0,32,0.00,,SKC,0.00,VWS V13.00,2013-08-24 21:55:00,
2013-08-24 16:00:00,72.7,42.0,29.93,North,0,0.0,0.0,33,0.00,,SKC,0.00,VWS V13.00,2013-08-24 22:00:00,
2013-08-24 16:05:00,72.5,41.0,29.93,North,0,0.0,0.0,32,0.00,,SKC,0.00,VWS V13.00,2013-08-24 22:05:00,
2013-08-24 16:10:00,72.5,41.0,29.93,North,0,0.0,0.0,32,0.00,,SKC,0.00,VWS V13.00,2013-08-24 22:10:00,
2013-08-24 16:15:00,72.3,42.4,29.93,North,0,0.0,0.0,34,0.00,,SKC,0.00,VWS V13.00,2013-08-24 22:15:00,
2013-08-24 16:20:00,72.1,42.2,29.93,North,0,0.0,0.0,34,0.00,,SKC,0.00,VWS V13.00,2013-08-24 22:20:00,
2013-08-24 16:25:00,72.0,42.8,29.93,North,0,0.0,0.0,35,0.00,,SKC,0.00,VWS V13.00,2013-08-24 22:25:00,
2013-08-24 16:30:00,71.6,40.2,29.93,North,0,0.0,0.0,32,0.00,,SKC,0.00,VWS V13.00,2013-08-24 22:30:00,
2013-08-24 16:35:00,71.4,42.4,29.93,North,0,0.0,0.0,35,0.00,,SKC,0.00,VWS V13.00,2013-08-24 22:35:00,
2013-08-24 16:40:00,70.9,42.6,29.93,North,0,0.0,0.0,36,0.00,,SKC,0.00,VWS V13.00,2013-08-24 22:40:00,
2013-08-24 16:45:00,70.2,42.0,29.93,North,0,0.0,0.0,36,0.00,,SKC,0.00,VWS V13.00,2013-08-24 22:45:00,
2013-08-24 16:50:00,69.6,42.9,29.93,North,0,0.0,0.0,38,0.00,,SKC,0.00,VWS V13.00,2013-08-24 22:50:00,
2013-08-24 16:55:00,69.1,43.8,29.93,North,0,0.0,0.0,40,0.00,,SKC,0.00,VWS V13.00,2013-08-24 22:55:00,
2013-08-24 17:00:00,68.7,42.8,29.93,North,0,0.0,0.0,39,0.00,,SKC,0.00,VWS V13.00,2013-08-24 23:00:00,
2013-08-24 17:05:00,68.4,42.5,29.93,North,0,0.0,0.0,39,0.00,,SKC,0.00,VWS V13.00,2013-08-24 23:05:00,
2013-08-24 17:10:00,68.4,39.7,29.93,North,0,0.0,0.0,35,0.00,,SKC,0.00,VWS V13.00,2013-08-24 23:10:00,
2013-08-24 17:15:00,68.0,44.7,29.96,North,0,0.0,0.0,43,0.00,,SKC,0.00,VWS V13.00,2013-08-24 23:15:00,
2013-08-24 17:20:00,66.7,46.5,29.96,North,0,0.0,0.0,48,0.00,,SKC,0.00,VWS V13.00,2013-08-24 23:20:00,
2013-08-24 17:25:00,65.5,46.4,29.96,North,0,0.0,0.0,50,0.00,,SKC,0.00,VWS V13.00,2013-08-24 23:25:00,
2013-08-24 17:30:00,63.9,49.7,29.99,North,0,0.0,0.0,60,0.00,,SKC,0.00,VWS V13.00,2013-08-24 23:30:00,
2013-08-24 17:35:00,61.3,49.1,29.99,North,0,0.0,0.0,64,0.00,,SKC,0.00,VWS V13.00,2013-08-24 23:35:00,
2013-08-24 17:40:00,59.9,49.7,29.99,North,0,0.0,0.0,69,0.00,,SKC,0.00,VWS V13.00,2013-08-24 23:40:00,
2013-08-24 17:45:00,59.0,50.4,29.99,North,0,0.0,0.0,73,0.00,,SKC,0.00,VWS V13.00,2013-08-24 23:45:00,
2013-08-24 17:50:00,58.5,50.6,29.99,North,0,0.0,0.0,75,0.00,,SKC,0.00,VWS V13.00,2013-08-24 23:50:00,
2013-08-24 17:55:00,58.5,50.9,29.99,North,0,0.0,0.0,76,0.00,,SKC,0.00,VWS V13.00,2013-08-24 23:55:00,
2013-08-24 18:00:00,58.5,51.6,29.99,North,0,0.0,0.0,78,0.00,,SKC,0.00,VWS V13.00,2013-08-25 00:00:00,
2013-08-24 18:05:00,58.3,51.8,29.99,North,0,0.0,0.0,79,0.00,,SKC,0.00,VWS V13.00,2013-08-25 00:05:00,
2013-08-24 18:10:00,58.3,52.2,29.99,North,0,0.0,0.0,80,0.00,,SKC,0.00,VWS V13.00,2013-08-25 00:10:00,
2013-08-24 18:15:00,58.5,52.3,29.96,North,0,0.0,0.0,80,0.00,,SKC,0.00,VWS V13.00,2013-08-25 00:15:00,
2013-08-24 18:20:00,58.8,52.7,29.96,North,0,0.0,0.0,80,0.00,,SKC,0.00,VWS V13.00,2013-08-25 00:20:00,
2013-08-24 18:25:00,58.8,52.7,29.96,North,0,0.0,0.0,80,0.00,,SKC,0.00,VWS V13.00,2013-08-25 00:25:00,
2013-08-24 18:30:00,59.0,52.8,29.96,North,0,0.0,0.0,80,0.00,,SKC,0.00,VWS V13.00,2013-08-25 00:30:00,
2013-08-24 18:35:00,59.2,53.0,29.96,North,0,0.0,0.0,80,0.00,,SKC,0.00,VWS V13.00,2013-08-25 00:35:00,
2013-08-24 18:40:00,59.0,52.5,29.96,North,0,0.0,0.0,79,0.00,,SKC,0.00,VWS V13.00,2013-08-25 00:40:00,
2013-08-24 18:45:00,59.0,52.8,29.99,North,0,0.0,0.0,80,0.00,,SKC,0.00,VWS V13.00,2013-08-25 00:45:00,
2013-08-24 18:50:00,59.0,52.8,29.99,North,0,0.0,0.0,80,0.00,,SKC,0.00,VWS V13.00,2013-08-25 00:50:00,
2013-08-24 18:56:00,58.6,52.8,29.99,North,0,0.0,0.0,81,0.00,,SKC,0.00,VWS V13.00,2013-08-25 00:56:00,
2013-08-24 19:01:00,58.3,52.5,29.99,North,0,0.0,0.0,81,0.00,,SKC,0.00,VWS V13.00,2013-08-25 01:01:00,
2013-08-24 19:06:00,57.9,52.5,29.99,North,0,0.0,0.0,82,0.00,,SKC,0.00,VWS V13.00,2013-08-25 01:06:00,
2013-08-24 19:11:00,57.7,52.6,29.99,North,0,0.0,0.0,83,0.00,,SKC,0.00,VWS V13.00,2013-08-25 01:11:00,
2013-08-24 19:16:00,57.6,52.4,29.99,North,0,0.0,0.0,83,0.00,,SKC,0.00,VWS V13.00,2013-08-25 01:16:00,
2013-08-24 19:21:00,57.6,52.8,29.99,North,0,0.0,0.0,84,0.00,,SKC,0.00,VWS V13.00,2013-08-25 01:21:00,
2013-08-24 19:26:00,57.6,52.8,29.99,North,0,0.0,0.0,84,0.00,,SKC,0.00,VWS V13.00,2013-08-25 01:26:00,
2013-08-24 19:31:00,57.6,52.8,29.99,North,0,0.0,0.0,84,0.00,,SKC,0.00,VWS V13.00,2013-08-25 01:31:00,
2013-08-24 19:36:00,57.6,52.8,29.99,North,0,0.0,0.0,84,0.00,,SKC,0.00,VWS V13.00,2013-08-25 01:36:00,
2013-08-24 19:41:00,57.6,53.1,29.99,North,0,0.0,0.0,85,0.00,,SKC,0.00,VWS V13.00,2013-08-25 01:41:00,
2013-08-24 19:46:00,57.4,52.9,29.99,North,0,0.0,0.0,85,0.00,,SKC,0.00,VWS V13.00,2013-08-25 01:46:00,
2013-08-24 19:51:00,57.4,52.9,29.99,North,0,0.0,0.0,85,0.00,,SKC,0.00,VWS V13.00,2013-08-25 01:51:00,
2013-08-24 19:56:00,57.2,52.7,29.99,North,0,0.0,0.0,85,0.00,,SKC,0.00,VWS V13.00,2013-08-25 01:56:00,
2013-08-24 20:01:00,57.2,52.7,29.99,North,0,0.0,0.0,85,0.00,,SKC,0.00,VWS V13.00,2013-08-25 02:01:00,
2013-08-24 20:06:00,56.8,52.7,29.99,North,0,0.0,0.0,86,0.00,,SKC,0.00,VWS V13.00,2013-08-25 02:06:00,
2013-08-24 20:11:00,56.7,52.5,29.99,North,0,0.0,0.0,86,0.00,,SKC,0.00,VWS V13.00,2013-08-25 02:11:00,
2013-08-24 20:16:00,56.7,52.5,29.99,North,0,0.0,0.0,86,0.00,,SKC,0.00,VWS V13.00,2013-08-25 02:16:00,
2013-08-24 20:21:00,56.5,52.7,29.99,North,0,0.0,0.0,87,0.00,,SKC,0.00,VWS V13.00,2013-08-25 02:21:00,
2013-08-24 20:26:00,56.5,52.7,29.99,North,0,0.0,0.0,87,0.00,,SKC,0.00,VWS V13.00,2013-08-25 02:26:00,
2013-08-24 20:31:00,56.3,52.5,29.99,North,0,0.0,0.0,87,0.00,,SKC,0.00,VWS V13.00,2013-08-25 02:31:00,
2013-08-24 20:36:00,56.3,52.5,29.99,North,0,0.0,0.0,87,0.00,,SKC,0.00,VWS V13.00,2013-08-25 02:36:00,
2013-08-24 20:41:00,55.9,52.4,29.99,North,0,0.0,0.0,88,0.00,,SKC,0.00,VWS V13.00,2013-08-25 02:41:00,
2013-08-24 20:46:00,55.8,52.3,29.99,North,0,0.0,0.0,88,0.00,,SKC,0.00,VWS V13.00,2013-08-25 02:46:00,
2013-08-24 20:51:00,55.6,52.4,29.99,North,0,0.0,0.0,89,0.00,,SKC,0.00,VWS V13.00,2013-08-25 02:51:00,
2013-08-24 20:56:00,55.8,52.6,29.99,North,0,0.0,0.0,89,0.00,,SKC,0.00,VWS V13.00,2013-08-25 02:56:00,
2013-08-24 21:01:00,55.8,52.6,29.99,North,0,0.0,0.0,89,0.00,,SKC,0.00,VWS V13.00,2013-08-25 03:01:00,
2013-08-24 21:06:00,55.6,52.4,29.99,North,0,0.0,0.0,89,0.00,,SKC,0.00,VWS V13.00,2013-08-25 03:06:00,
2013-08-24 21:11:00,55.6,52.4,29.99,North,0,0.0,0.0,89,0.00,,SKC,0.00,VWS V13.00,2013-08-25 03:11:00,
2013-08-24 21:16:00,55.8,52.6,29.99,North,0,0.0,0.0,89,0.00,,SKC,0.00,VWS V13.00,2013-08-25 03:16:00,
2013-08-24 21:21:00,55.8,52.6,29.99,North,0,0.0,0.0,89,0.00,,SKC,0.00,VWS V13.00,2013-08-25 03:21:00,
2013-08-24 21:26:00,55.6,52.4,29.99,North,0,0.0,0.0,89,0.00,,SKC,0.00,VWS V13.00,2013-08-25 03:26:00,
2013-08-24 21:31:00,55.6,52.4,29.99,North,0,0.0,0.0,89,0.00,,SKC,0.00,VWS V13.00,2013-08-25 03:31:00,
2013-08-24 21:36:00,55.6,52.4,29.99,North,0,0.0,0.0,89,0.00,,SKC,0.00,VWS V13.00,2013-08-25 03:36:00,
2013-08-24 21:41:00,55.6,52.4,29.99,North,0,0.0,0.0,89,0.00,,SKC,0.00,VWS V13.00,2013-08-25 03:41:00,
2013-08-24 21:46:00,55.4,52.2,29.99,North,0,0.0,0.0,89,0.00,,SKC,0.00,VWS V13.00,2013-08-25 03:46:00,
2013-08-24 21:51:00,55.2,52.3,29.99,North,0,0.0,0.0,90,0.00,,SKC,0.00,VWS V13.00,2013-08-25 03:51:00,
2013-08-24 21:56:00,55.2,52.3,29.99,North,0,0.0,0.0,90,0.00,,SKC,0.00,VWS V13.00,2013-08-25 03:56:00,
2013-08-24 22:01:00,55.4,52.2,29.99,North,0,0.0,0.0,89,0.00,,SKC,0.00,VWS V13.00,2013-08-25 04:01:00,
2013-08-24 22:02:00,55.4,52.5,29.99,North,0,0.0,0.0,90,0.00,,SKC,0.00,VWS V13.00,2013-08-25 04:02:00,
2013-08-24 22:07:00,55.2,52.3,29.99,North,0,0.0,0.0,90,0.00,,SKC,0.00,VWS V13.00,2013-08-25 04:07:00,
2013-08-24 22:12:00,55.2,52.3,29.99,North,0,0.0,0.0,90,0.00,,SKC,0.00,VWS V13.00,2013-08-25 04:12:00,
2013-08-24 22:17:00,55.0,52.2,29.99,North,0,0.0,0.0,90,0.00,,SKC,0.00,VWS V13.00,2013-08-25 04:17:00,
2013-08-24 22:22:00,55.0,52.2,29.99,North,0,0.0,0.0,90,0.00,,SKC,0.00,VWS V13.00,2013-08-25 04:22:00,
2013-08-24 22:27:00,55.0,52.2,29.99,North,0,0.0,0.0,90,0.00,,SKC,0.00,VWS V13.00,2013-08-25 04:27:00,
2013-08-24 22:32:00,55.2,52.3,29.99,North,0,0.0,0.0,90,0.00,,SKC,0.00,VWS V13.00,2013-08-25 04:32:00,
2013-08-24 22:37:00,55.2,52.3,29.99,North,0,0.0,0.0,90,0.00,,SKC,0.00,VWS V13.00,2013-08-25 04:37:00,
2013-08-24 22:42:00,55.0,52.2,29.99,North,0,0.0,0.0,90,0.00,,SKC,0.00,VWS V13.00,2013-08-25 04:42:00,
2013-08-24 22:47:00,55.0,52.2,29.99,North,0,0.0,0.0,90,0.00,,SKC,0.00,VWS V13.00,2013-08-25 04:47:00,
2013-08-24 22:52:00,55.0,52.2,29.99,North,0,0.0,0.0,90,0.00,,SKC,0.00,VWS V13.00,2013-08-25 04:52:00,
2013-08-24 22:57:00,55.0,52.2,29.99,North,0,0.0,0.0,90,0.00,,SKC,0.00,VWS V13.00,2013-08-25 04:57:00,
2013-08-24 23:02:00,54.9,52.0,29.99,North,0,0.0,0.0,90,0.00,,SKC,0.00,VWS V13.00,2013-08-25 05:02:00,
2013-08-24 23:07:00,54.9,52.0,29.99,North,0,0.0,0.0,90,0.00,,SKC,0.00,VWS V13.00,2013-08-25 05:07:00,
2013-08-24 23:12:00,54.7,51.8,29.99,North,0,0.0,0.0,90,0.00,,SKC,0.00,VWS V13.00,2013-08-25 05:12:00,
2013-08-24 23:17:00,54.7,51.8,29.99,North,0,0.0,0.0,90,0.00,,SKC,0.00,VWS V13.00,2013-08-25 05:17:00,
2013-08-24 23:22:00,54.5,51.6,29.99,North,0,0.0,0.0,90,0.00,,SKC,0.00,VWS V13.00,2013-08-25 05:22:00,
2013-08-24 23:27:00,54.5,51.6,29.99,North,0,0.0,0.0,90,0.00,,SKC,0.00,VWS V13.00,2013-08-25 05:27:00,
2013-08-24 23:32:00,54.3,51.5,29.99,North,0,0.0,0.0,90,0.00,,SKC,0.00,VWS V13.00,2013-08-25 05:32:00,
2013-08-24 23:37:00,54.3,51.5,29.99,North,0,0.0,0.0,90,0.00,,SKC,0.00,VWS V13.00,2013-08-25 05:37:00,
2013-08-24 23:42:00,54.3,51.5,29.99,North,0,0.0,0.0,90,0.00,,SKC,0.00,VWS V13.00,2013-08-25 05:42:00,
2013-08-24 23:47:00,54.1,51.3,29.99,North,0,0.0,0.0,90,0.00,,SKC,0.00,VWS V13.00,2013-08-25 05:47:00,
2013-08-24 23:52:00,54.3,51.5,29.99,North,0,0.0,0.0,90,0.00,,SKC,0.00,VWS V13.00,2013-08-25 05:52:00,
2013-08-24 23:57:00,54.1,51.3,29.99,North,0,0.0,0.0,90,0.00,,SKC,0.00,VWS V13.00,2013-08-25 05:57:00,